sensor_id;sensor_type;location;lat;lon;timestamp;pressure;altitude;pressure_sealevel;temperature
7830;BMP180;3960;51.86894000;5.39848000;2023-02-01T00:02:21;102066.28;;;4.94
7830;BMP180;3960;51.86894000;5.39848000;2023-02-01T00:04:47;102019.34;;;4.76
7830;BMP180;3960;51.86894000;5.39848000;2023-02-01T00:07:12;102013.84;;;4.85
7830;BMP180;3960;51.86894000;5.39848000;2023-02-01T00:09:37;102023.78;;;4.96
7830;BMP180;3960;51.86894000;5.39848000;2023-02-01T00:12:02;101986.78;;;4.78
7830;BMP180;3960;51.86894000;5.39848000;2023-02-01T00:14:28;102044.38;;;5.04
7830;BMP180;3960;51.86894000;5.39848000;2023-02-01T00:16:54;102042.91;;;5.06
7830;BMP180;3960;51.86894000;5.39848000;2023-02-01T00:19:19;102032.28;;;4.98
7830;BMP180;3960;51.86894000;5.39848000;2023-02-01T00:21:44;102026.13;;;4.98
7830;BMP180;3960;51.86894000;5.39848000;2023-02-01T00:24:11;102048.63;;;5.05
7830;BMP180;3960;51.86894000;5.39848000;2023-02-01T00:26:41;102035.53;;;4.92
7830;BMP180;3960;51.86894000;5.39848000;2023-02-01T00:29:12;102057.78;;;5.04
7830;BMP180;3960;51.86894000;5.39848000;2023-02-01T00:31:38;102043.13;;;5.02
7830;BMP180;3960;51.86894000;5.39848000;2023-02-01T00:34:04;102023.69;;;4.93
7830;BMP180;3960;51.86894000;5.39848000;2023-02-01T00:36:29;101999.31;;;4.86
7830;BMP180;3960;51.86894000;5.39848000;2023-02-01T00:38:55;102039.41;;;5.06
7830;BMP180;3960;51.86894000;5.39848000;2023-02-01T00:41:21;102029.28;;;4.88
7830;BMP180;3960;51.86894000;5.39848000;2023-02-01T00:43:49;102034.88;;;4.95
7830;BMP180;3960;51.86894000;5.39848000;2023-02-01T00:46:16;102036.97;;;5.01
7830;BMP180;3960;51.86894000;5.39848000;2023-02-01T00:48:42;102043.91;;;5.02
7830;BMP180;3960;51.86894000;5.39848000;2023-02-01T00:51:10;102034.28;;;5.01
7830;BMP180;3960;51.86894000;5.39848000;2023-02-01T00:53:36;102036.88;;;4.98
7830;BMP180;3960;51.86894000;5.39848000;2023-02-01T00:56:02;102021.53;;;4.86
7830;BMP180;3960;51.86894000;5.39848000;2023-02-01T00:58:28;102020.78;;;4.86
7830;BMP180;3960;51.86894000;5.39848000;2023-02-01T01:01:05;102015.66;;;4.81
7830;BMP180;3960;51.86894000;5.39848000;2023-02-01T01:03:32;102024.56;;;4.85
7830;BMP180;3960;51.86894000;5.39848000;2023-02-01T01:06:02;102047.28;;;4.87
7830;BMP180;3960;51.86894000;5.39848000;2023-02-01T01:08:28;102046.50;;;4.87
7830;BMP180;3960;51.86894000;5.39848000;2023-02-01T01:10:53;102005.00;;;4.60
7830;BMP180;3960;51.86894000;5.39848000;2023-02-01T01:13:19;102019.56;;;4.71
7830;BMP180;3960;51.86894000;5.39848000;2023-02-01T01:15:44;102019.75;;;4.66
7830;BMP180;3960;51.86894000;5.39848000;2023-02-01T01:18:09;102028.38;;;4.72
7830;BMP180;3960;51.86894000;5.39848000;2023-02-01T01:20:37;102028.28;;;4.68
7830;BMP180;3960;51.86894000;5.39848000;2023-02-01T01:23:03;101990.16;;;4.51
7830;BMP180;3960;51.86894000;5.39848000;2023-02-01T01:25:28;102008.59;;;4.64
7830;BMP180;3960;51.86894000;5.39848000;2023-02-01T01:27:53;102009.81;;;4.67
7830;BMP180;3960;51.86894000;5.39848000;2023-02-01T01:30:19;102008.50;;;4.61
7830;BMP180;3960;51.86894000;5.39848000;2023-02-01T01:32:44;102025.03;;;4.75
7830;BMP180;3960;51.86894000;5.39848000;2023-02-01T01:35:10;102022.34;;;4.75
7830;BMP180;3960;51.86894000;5.39848000;2023-02-01T01:37:36;101993.84;;;4.58
7830;BMP180;3960;51.86894000;5.39848000;2023-02-01T01:40:05;102021.91;;;4.73
7830;BMP180;3960;51.86894000;5.39848000;2023-02-01T01:42:37;102013.41;;;4.71
7830;BMP180;3960;51.86894000;5.39848000;2023-02-01T01:45:18;102018.22;;;4.77
7830;BMP180;3960;51.86894000;5.39848000;2023-02-01T01:47:48;102004.69;;;4.62
7830;BMP180;3960;51.86894000;5.39848000;2023-02-01T01:50:19;102028.63;;;4.67
7830;BMP180;3960;51.86894000;5.39848000;2023-02-01T01:52:50;102023.13;;;4.63
7830;BMP180;3960;51.86894000;5.39848000;2023-02-01T01:55:18;102020.09;;;4.65
7830;BMP180;3960;51.86894000;5.39848000;2023-02-01T01:57:47;102018.22;;;4.65
7830;BMP180;3960;51.86894000;5.39848000;2023-02-01T02:00:17;102016.78;;;4.68
7830;BMP180;3960;51.86894000;5.39848000;2023-02-01T02:02:47;102008.03;;;4.71
7830;BMP180;3960;51.86894000;5.39848000;2023-02-01T02:05:17;102000.78;;;4.71
7830;BMP180;3960;51.86894000;5.39848000;2023-02-01T02:07:46;101989.13;;;4.67
7830;BMP180;3960;51.86894000;5.39848000;2023-02-01T02:10:15;101970.00;;;4.57
7830;BMP180;3960;51.86894000;5.39848000;2023-02-01T02:12:43;101990.16;;;4.75
7830;BMP180;3960;51.86894000;5.39848000;2023-02-01T02:15:11;101988.69;;;4.77
7830;BMP180;3960;51.86894000;5.39848000;2023-02-01T02:17:59;101980.28;;;4.79
7830;BMP180;3960;51.86894000;5.39848000;2023-02-01T02:20:49;101984.88;;;4.78
7830;BMP180;3960;51.86894000;5.39848000;2023-02-01T02:40:10;101977.34;;;4.96
7830;BMP180;3960;51.86894000;5.39848000;2023-02-01T02:43:04;101957.69;;;4.92
7830;BMP180;3960;51.86894000;5.39848000;2023-02-01T02:46:04;101962.34;;;5.06
7830;BMP180;3960;51.86894000;5.39848000;2023-02-01T02:49:05;101968.69;;;5.14
7830;BMP180;3960;51.86894000;5.39848000;2023-02-01T02:51:40;101964.13;;;5.14
7830;BMP180;3960;51.86894000;5.39848000;2023-02-01T02:54:31;101959.63;;;5.18
7830;BMP180;3960;51.86894000;5.39848000;2023-02-01T02:57:36;101959.38;;;5.23
7830;BMP180;3960;51.86894000;5.39848000;2023-02-01T03:00:28;101955.13;;;5.22
7830;BMP180;3960;51.86894000;5.39848000;2023-02-01T03:03:13;101964.41;;;5.25
7830;BMP180;3960;51.86894000;5.39848000;2023-02-01T03:05:57;101965.19;;;5.25
7830;BMP180;3960;51.86894000;5.39848000;2023-02-01T03:08:28;101974.03;;;5.26
7830;BMP180;3960;51.86894000;5.39848000;2023-02-01T03:11:06;101974.13;;;5.29
7830;BMP180;3960;51.86894000;5.39848000;2023-02-01T03:16:17;101940.19;;;5.37
7830;BMP180;3960;51.86894000;5.39848000;2023-02-01T03:19:15;101940.38;;;5.44
7830;BMP180;3960;51.86894000;5.39848000;2023-02-01T03:21:53;101933.09;;;5.44
7830;BMP180;3960;51.86894000;5.39848000;2023-02-01T03:24:23;101921.81;;;5.39
7830;BMP180;3960;51.86894000;5.39848000;2023-02-01T03:27:03;101921.50;;;5.40
7830;BMP180;3960;51.86894000;5.39848000;2023-02-01T03:29:36;101933.88;;;5.45
7830;BMP180;3960;51.86894000;5.39848000;2023-02-01T03:32:03;101935.69;;;5.41
7830;BMP180;3960;51.86894000;5.39848000;2023-02-01T03:34:29;101941.94;;;5.45
7830;BMP180;3960;51.86894000;5.39848000;2023-02-01T03:37:00;101915.22;;;5.36
7830;BMP180;3960;51.86894000;5.39848000;2023-02-01T03:39:34;101940.50;;;5.47
7830;BMP180;3960;51.86894000;5.39848000;2023-02-01T03:42:15;101920.69;;;5.40
7830;BMP180;3960;51.86894000;5.39848000;2023-02-01T03:44:53;101931.63;;;5.47
7830;BMP180;3960;51.86894000;5.39848000;2023-02-01T03:47:28;101925.72;;;5.41
7830;BMP180;3960;51.86894000;5.39848000;2023-02-01T03:50:23;101938.47;;;5.44
7830;BMP180;3960;51.86894000;5.39848000;2023-02-01T03:52:57;101939.50;;;5.40
7830;BMP180;3960;51.86894000;5.39848000;2023-02-01T03:55:25;101932.13;;;5.37
7830;BMP180;3960;51.86894000;5.39848000;2023-02-01T03:58:03;101937.59;;;5.40
7830;BMP180;3960;51.86894000;5.39848000;2023-02-01T04:00:31;101920.31;;;5.26
7830;BMP180;3960;51.86894000;5.39848000;2023-02-01T04:02:56;101930.13;;;5.34
7830;BMP180;3960;51.86894000;5.39848000;2023-02-01T04:05:22;101942.69;;;5.30
7830;BMP180;3960;51.86894000;5.39848000;2023-02-01T04:07:47;101955.00;;;5.31
7830;BMP180;3960;51.86894000;5.39848000;2023-02-01T04:10:13;101953.09;;;5.31
7830;BMP180;3960;51.86894000;5.39848000;2023-02-01T04:12:39;101936.66;;;5.21
7830;BMP180;3960;51.86894000;5.39848000;2023-02-01T04:15:05;101955.66;;;5.28
7830;BMP180;3960;51.86894000;5.39848000;2023-02-01T04:17:30;101966.41;;;5.28
7830;BMP180;3960;51.86894000;5.39848000;2023-02-01T04:19:56;101961.53;;;5.18
7830;BMP180;3960;51.86894000;5.39848000;2023-02-01T04:22:21;101944.31;;;5.07
7830;BMP180;3960;51.86894000;5.39848000;2023-02-01T04:24:47;101944.53;;;5.14
7830;BMP180;3960;51.86894000;5.39848000;2023-02-01T04:27:12;101942.63;;;5.14
7830;BMP180;3960;51.86894000;5.39848000;2023-02-01T04:29:38;101923.59;;;5.19
7830;BMP180;3960;51.86894000;5.39848000;2023-02-01T04:32:04;101947.47;;;5.36
7830;BMP180;3960;51.86894000;5.39848000;2023-02-01T04:34:29;101932.81;;;5.34
7830;BMP180;3960;51.86894000;5.39848000;2023-02-01T04:36:55;101944.88;;;5.40
7830;BMP180;3960;51.86894000;5.39848000;2023-02-01T04:39:20;101942.63;;;5.42
7830;BMP180;3960;51.86894000;5.39848000;2023-02-01T04:41:45;101938.22;;;5.49
7830;BMP180;3960;51.86894000;5.39848000;2023-02-01T04:44:13;101951.28;;;5.63
7830;BMP180;3960;51.86894000;5.39848000;2023-02-01T04:46:39;101928.78;;;5.55
7830;BMP180;3960;51.86894000;5.39848000;2023-02-01T04:49:05;101937.66;;;5.71
7830;BMP180;3960;51.86894000;5.39848000;2023-02-01T04:51:30;101933.84;;;5.72
7830;BMP180;3960;51.86894000;5.39848000;2023-02-01T04:53:56;101950.53;;;5.78
7830;BMP180;3960;51.86894000;5.39848000;2023-02-01T04:56:21;101929.16;;;5.69
7830;BMP180;3960;51.86894000;5.39848000;2023-02-01T04:58:47;101948.56;;;5.90
7830;BMP180;3960;51.86894000;5.39848000;2023-02-01T05:01:12;101949.75;;;5.92
7830;BMP180;3960;51.86894000;5.39848000;2023-02-01T05:03:37;101957.47;;;5.94
7830;BMP180;3960;51.86894000;5.39848000;2023-02-01T05:06:03;101954.09;;;5.97
7830;BMP180;3960;51.86894000;5.39848000;2023-02-01T05:08:32;101924.94;;;5.83
7830;BMP180;3960;51.86894000;5.39848000;2023-02-01T05:10:57;101924.34;;;5.90
7830;BMP180;3960;51.86894000;5.39848000;2023-02-01T05:13:24;101933.13;;;6.02
7830;BMP180;3960;51.86894000;5.39848000;2023-02-01T05:16:08;101915.44;;;6.01
7830;BMP180;3960;51.86894000;5.39848000;2023-02-01T05:18:34;101918.13;;;6.01
7830;BMP180;3960;51.86894000;5.39848000;2023-02-01T05:20:59;101894.69;;;5.86
7830;BMP180;3960;51.86894000;5.39848000;2023-02-01T05:23:24;101913.06;;;6.00
7830;BMP180;3960;51.86894000;5.39848000;2023-02-01T05:25:50;101918.38;;;5.96
7830;BMP180;3960;51.86894000;5.39848000;2023-02-01T05:28:15;101888.25;;;5.76
7830;BMP180;3960;51.86894000;5.39848000;2023-02-01T05:30:40;101928.16;;;5.89
7830;BMP180;3960;51.86894000;5.39848000;2023-02-01T05:33:05;101907.59;;;5.81
7830;BMP180;3960;51.86894000;5.39848000;2023-02-01T05:35:31;101934.66;;;5.88
7830;BMP180;3960;51.86894000;5.39848000;2023-02-01T05:37:56;101933.91;;;5.87
7830;BMP180;3960;51.86894000;5.39848000;2023-02-01T05:40:21;101934.56;;;5.84
7830;BMP180;3960;51.86894000;5.39848000;2023-02-01T05:42:47;101927.97;;;5.82
7830;BMP180;3960;51.86894000;5.39848000;2023-02-01T05:45:12;101949.50;;;5.97
7830;BMP180;3960;51.86894000;5.39848000;2023-02-01T05:47:38;101931.38;;;5.79
7830;BMP180;3960;51.86894000;5.39848000;2023-02-01T05:50:04;101963.03;;;6.01
7830;BMP180;3960;51.86894000;5.39848000;2023-02-01T05:52:30;101954.97;;;6.01
7830;BMP180;3960;51.86894000;5.39848000;2023-02-01T05:54:55;101958.09;;;6.03
7830;BMP180;3960;51.86894000;5.39848000;2023-02-01T05:57:20;101943.34;;;5.97
7830;BMP180;3960;51.86894000;5.39848000;2023-02-01T05:59:46;101939.19;;;5.99
7830;BMP180;3960;51.86894000;5.39848000;2023-02-01T06:02:12;101946.75;;;6.09
7830;BMP180;3960;51.86894000;5.39848000;2023-02-01T06:04:38;101926.69;;;5.91
7830;BMP180;3960;51.86894000;5.39848000;2023-02-01T06:07:04;101941.97;;;6.03
7830;BMP180;3960;51.86894000;5.39848000;2023-02-01T06:09:30;101925.91;;;6.06
7830;BMP180;3960;51.86894000;5.39848000;2023-02-01T06:11:55;101930.53;;;6.21
7830;BMP180;3960;51.86894000;5.39848000;2023-02-01T06:14:21;101932.00;;;6.19
7830;BMP180;3960;51.86894000;5.39848000;2023-02-01T06:16:46;101944.47;;;6.27
7830;BMP180;3960;51.86894000;5.39848000;2023-02-01T06:19:12;101943.69;;;6.26
7830;BMP180;3960;51.86894000;5.39848000;2023-02-01T06:21:38;101932.00;;;6.19
7830;BMP180;3960;51.86894000;5.39848000;2023-02-01T06:24:03;101928.41;;;6.15
7830;BMP180;3960;51.86894000;5.39848000;2023-02-01T06:26:29;101934.41;;;6.24
7830;BMP180;3960;51.86894000;5.39848000;2023-02-01T06:28:54;101948.31;;;6.26
7830;BMP180;3960;51.86894000;5.39848000;2023-02-01T06:31:20;101935.28;;;6.12
7830;BMP180;3960;51.86894000;5.39848000;2023-02-01T06:33:46;101938.69;;;6.09
7830;BMP180;3960;51.86894000;5.39848000;2023-02-01T06:36:12;101945.78;;;6.17
7830;BMP180;3960;51.86894000;5.39848000;2023-02-01T06:38:38;101949.25;;;6.18
7830;BMP180;3960;51.86894000;5.39848000;2023-02-01T06:41:05;101962.88;;;6.25
7830;BMP180;3960;51.86894000;5.39848000;2023-02-01T06:43:30;101957.06;;;6.23
7830;BMP180;3960;51.86894000;5.39848000;2023-02-01T06:46:02;101956.63;;;6.21
7830;BMP180;3960;51.86894000;5.39848000;2023-02-01T06:48:28;101962.34;;;6.19
7830;BMP180;3960;51.86894000;5.39848000;2023-02-01T06:50:53;101943.34;;;6.12
7830;BMP180;3960;51.86894000;5.39848000;2023-02-01T06:53:18;101948.72;;;6.12
7830;BMP180;3960;51.86894000;5.39848000;2023-02-01T06:56:01;101952.44;;;6.23
7830;BMP180;3960;51.86894000;5.39848000;2023-02-01T06:58:30;101955.94;;;6.24
7830;BMP180;3960;51.86894000;5.39848000;2023-02-01T07:00:56;101947.16;;;6.11
7830;BMP180;3960;51.86894000;5.39848000;2023-02-01T07:03:21;101964.00;;;6.24
7830;BMP180;3960;51.86894000;5.39848000;2023-02-01T07:05:47;101943.34;;;6.12
7830;BMP180;3960;51.86894000;5.39848000;2023-02-01T07:08:12;101947.88;;;6.08
7830;BMP180;3960;51.86894000;5.39848000;2023-02-01T07:10:37;101953.66;;;6.10
7830;BMP180;3960;51.86894000;5.39848000;2023-02-01T07:13:03;101969.31;;;6.20
7830;BMP180;3960;51.86894000;5.39848000;2023-02-01T07:15:28;101947.88;;;6.08
7830;BMP180;3960;51.86894000;5.39848000;2023-02-01T07:17:54;101971.19;;;6.20
7830;BMP180;3960;51.86894000;5.39848000;2023-02-01T07:20:20;101969.91;;;6.14
7830;BMP180;3960;51.86894000;5.39848000;2023-02-01T07:22:45;101956.63;;;6.05
7830;BMP180;3960;51.86894000;5.39848000;2023-02-01T07:25:11;101958.81;;;6.15
7830;BMP180;3960;51.86894000;5.39848000;2023-02-01T07:27:36;101956.34;;;6.10
7830;BMP180;3960;51.86894000;5.39848000;2023-02-01T07:30:05;101962.34;;;6.04
7830;BMP180;3960;51.86894000;5.39848000;2023-02-01T07:32:31;101980.84;;;6.21
7830;BMP180;3960;51.86894000;5.39848000;2023-02-01T07:34:57;101966.69;;;6.24
7830;BMP180;3960;51.86894000;5.39848000;2023-02-01T07:37:23;101971.63;;;6.22
7830;BMP180;3960;51.86894000;5.39848000;2023-02-01T07:39:51;101953.84;;;6.02
7830;BMP180;3960;51.86894000;5.39848000;2023-02-01T07:42:17;101970.44;;;6.19
7830;BMP180;3960;51.86894000;5.39848000;2023-02-01T07:44:43;101973.88;;;6.20
7830;BMP180;3960;51.86894000;5.39848000;2023-02-01T07:47:08;101974.59;;;6.17
7830;BMP180;3960;51.86894000;5.39848000;2023-02-01T07:49:33;101970.69;;;6.14
7830;BMP180;3960;51.86894000;5.39848000;2023-02-01T07:51:59;101984.66;;;6.20
7830;BMP180;3960;51.86894000;5.39848000;2023-02-01T07:54:24;101966.63;;;6.05
7830;BMP180;3960;51.86894000;5.39848000;2023-02-01T07:56:49;101974.25;;;6.03
7830;BMP180;3960;51.86894000;5.39848000;2023-02-01T07:59:15;101975.09;;;6.07
7830;BMP180;3960;51.86894000;5.39848000;2023-02-01T08:01:41;101984.72;;;6.08
7830;BMP180;3960;51.86894000;5.39848000;2023-02-01T08:04:09;101954.38;;;5.92
7830;BMP180;3960;51.86894000;5.39848000;2023-02-01T08:06:34;101963.22;;;5.92
7830;BMP180;3960;51.86894000;5.39848000;2023-02-01T08:09:00;101971.38;;;5.96
7830;BMP180;3960;51.86894000;5.39848000;2023-02-01T08:11:26;101987.88;;;6.10
7830;BMP180;3960;51.86894000;5.39848000;2023-02-01T08:13:51;101998.34;;;6.15
7830;BMP180;3960;51.86894000;5.39848000;2023-02-01T08:16:18;102002.25;;;6.17
7830;BMP180;3960;51.86894000;5.39848000;2023-02-01T08:18:45;102007.81;;;6.24
7830;BMP180;3960;51.86894000;5.39848000;2023-02-01T08:21:15;101988.22;;;6.24
7830;BMP180;3960;51.86894000;5.39848000;2023-02-01T08:23:42;101992.28;;;6.33
7830;BMP180;3960;51.86894000;5.39848000;2023-02-01T08:26:15;101987.00;;;6.37
7830;BMP180;3960;51.86894000;5.39848000;2023-02-01T08:28:46;101974.91;;;6.61
7830;BMP180;3960;51.86894000;5.39848000;2023-02-01T08:31:14;101962.22;;;6.96
7830;BMP180;3960;51.86894000;5.39848000;2023-02-01T08:33:40;101988.13;;;6.85
7830;BMP180;3960;51.86894000;5.39848000;2023-02-01T08:36:07;101954.28;;;6.69
7830;BMP180;3960;51.86894000;5.39848000;2023-02-01T08:38:37;101961.75;;;7.10
7830;BMP180;3960;51.86894000;5.39848000;2023-02-01T08:41:09;101985.00;;;7.55
7830;BMP180;3960;51.86894000;5.39848000;2023-02-01T08:43:35;101978.75;;;7.70
7830;BMP180;3960;51.86894000;5.39848000;2023-02-01T08:46:01;101941.00;;;7.70
7830;BMP180;3960;51.86894000;5.39848000;2023-02-01T08:48:26;101970.06;;;8.02
7830;BMP180;3960;51.86894000;5.39848000;2023-02-01T08:50:52;101962.63;;;8.15
7830;BMP180;3960;51.86894000;5.39848000;2023-02-01T08:53:17;101967.88;;;8.30
7830;BMP180;3960;51.86894000;5.39848000;2023-02-01T08:55:42;101946.34;;;8.34
7830;BMP180;3960;51.86894000;5.39848000;2023-02-01T08:58:08;101972.97;;;8.61
7830;BMP180;3960;51.86894000;5.39848000;2023-02-01T09:00:33;101969.72;;;8.74
7830;BMP180;3960;51.86894000;5.39848000;2023-02-01T09:02:58;101977.66;;;8.90
7830;BMP180;3960;51.86894000;5.39848000;2023-02-01T09:05:24;101977.38;;;8.98
7830;BMP180;3960;51.86894000;5.39848000;2023-02-01T09:07:52;101954.56;;;8.96
7830;BMP180;3960;51.86894000;5.39848000;2023-02-01T09:10:17;101982.06;;;9.01
7830;BMP180;3960;51.86894000;5.39848000;2023-02-01T09:12:43;101980.41;;;8.93
7830;BMP180;3960;51.86894000;5.39848000;2023-02-01T09:15:08;101958.53;;;8.76
7830;BMP180;3960;51.86894000;5.39848000;2023-02-01T09:17:34;101962.88;;;8.80
7830;BMP180;3960;51.86894000;5.39848000;2023-02-01T09:19:59;101958.28;;;8.59
7830;BMP180;3960;51.86894000;5.39848000;2023-02-01T09:22:25;101972.47;;;8.52
7830;BMP180;3960;51.86894000;5.39848000;2023-02-01T09:24:52;101972.09;;;8.54
7830;BMP180;3960;51.86894000;5.39848000;2023-02-01T09:27:17;101971.94;;;8.69
7830;BMP180;3960;51.86894000;5.39848000;2023-02-01T09:29:42;101957.25;;;8.67
7830;BMP180;3960;51.86894000;5.39848000;2023-02-01T09:32:08;101962.13;;;8.58
7830;BMP180;3960;51.86894000;5.39848000;2023-02-01T09:34:33;101931.81;;;8.42
7830;BMP180;3960;51.86894000;5.39848000;2023-02-01T09:36:59;101924.22;;;8.25
7830;BMP180;3960;51.86894000;5.39848000;2023-02-01T09:39:25;101928.41;;;8.22
7830;BMP180;3960;51.86894000;5.39848000;2023-02-01T09:47:23;101943.84;;;8.73
7830;BMP180;3960;51.86894000;5.39848000;2023-02-01T09:50:13;101961.03;;;8.88
7830;BMP180;3960;51.86894000;5.39848000;2023-02-01T09:53:27;101968.63;;;8.79
7830;BMP180;3960;51.86894000;5.39848000;2023-02-01T09:56:00;101948.88;;;8.49
7830;BMP180;3960;51.86894000;5.39848000;2023-02-01T09:58:35;101965.09;;;8.49
7830;BMP180;3960;51.86894000;5.39848000;2023-02-01T10:01:03;101964.75;;;8.28
7830;BMP180;3960;51.86894000;5.39848000;2023-02-01T10:03:31;101966.63;;;8.24
7830;BMP180;3960;51.86894000;5.39848000;2023-02-01T10:06:40;101983.88;;;8.42
7830;BMP180;3960;51.86894000;5.39848000;2023-02-01T10:09:14;101963.72;;;8.36
7830;BMP180;3960;51.86894000;5.39848000;2023-02-01T10:25:41;101966.34;;;8.10
7830;BMP180;3960;51.86894000;5.39848000;2023-02-01T10:28:14;101959.34;;;8.06
7830;BMP180;3960;51.86894000;5.39848000;2023-02-01T10:30:46;101968.22;;;8.06
7830;BMP180;3960;51.86894000;5.39848000;2023-02-01T10:36:00;101951.84;;;7.96
7830;BMP180;3960;51.86894000;5.39848000;2023-02-01T10:38:29;101956.06;;;7.94
7830;BMP180;3960;51.86894000;5.39848000;2023-02-01T10:41:00;101955.88;;;7.83
7830;BMP180;3960;51.86894000;5.39848000;2023-02-01T10:43:26;101957.06;;;7.86
7830;BMP180;3960;51.86894000;5.39848000;2023-02-01T10:45:52;101946.09;;;7.75
7830;BMP180;3960;51.86894000;5.39848000;2023-02-01T10:48:17;101941.00;;;7.70
7830;BMP180;3960;51.86894000;5.39848000;2023-02-01T10:55:47;101938.53;;;7.62
7830;BMP180;3960;51.86894000;5.39848000;2023-02-01T10:58:19;101944.06;;;7.69
7830;BMP180;3960;51.86894000;5.39848000;2023-02-01T11:00:48;101921.94;;;7.60
7830;BMP180;3960;51.86894000;5.39848000;2023-02-01T11:03:34;101932.97;;;7.74
7830;BMP180;3960;51.86894000;5.39848000;2023-02-01T11:06:08;101943.44;;;7.79
7830;BMP180;3960;51.86894000;5.39848000;2023-02-01T11:08:51;101921.22;;;7.85
7830;BMP180;3960;51.86894000;5.39848000;2023-02-01T11:11:17;101902.16;;;7.75
7830;BMP180;3960;51.86894000;5.39848000;2023-02-01T11:13:43;101912.97;;;7.75
7830;BMP180;3960;51.86894000;5.39848000;2023-02-01T11:16:13;101893.28;;;7.74
7830;BMP180;3960;51.86894000;5.39848000;2023-02-01T11:18:40;101923.31;;;7.95
7830;BMP180;3960;51.86894000;5.39848000;2023-02-01T11:21:06;101933.69;;;7.93
7830;BMP180;3960;51.86894000;5.39848000;2023-02-01T11:23:33;101927.09;;;7.91
7830;BMP180;3960;51.86894000;5.39848000;2023-02-01T11:26:09;101930.16;;;7.89
7830;BMP180;3960;51.86894000;5.39848000;2023-02-01T11:28:38;101887.94;;;7.78
7830;BMP180;3960;51.86894000;5.39848000;2023-02-01T11:31:08;101920.69;;;7.98
7830;BMP180;3960;51.86894000;5.39848000;2023-02-01T11:33:37;101911.94;;;8.05
7830;BMP180;3960;51.86894000;5.39848000;2023-02-01T11:36:15;101910.19;;;7.94
7830;BMP180;3960;51.86894000;5.39848000;2023-02-01T11:39:08;101907.69;;;8.04
7830;BMP180;3960;51.86894000;5.39848000;2023-02-01T11:41:33;101912.59;;;7.98
7830;BMP180;3960;51.86894000;5.39848000;2023-02-01T11:44:00;101917.16;;;7.95
7830;BMP180;3960;51.86894000;5.39848000;2023-02-01T11:46:30;101895.22;;;7.74
7830;BMP180;3960;51.86894000;5.39848000;2023-02-01T11:49:18;101915.03;;;7.85
7830;BMP180;3960;51.86894000;5.39848000;2023-02-01T11:52:27;101928.47;;;7.81
7830;BMP180;3960;51.86894000;5.39848000;2023-02-01T12:06:07;101908.28;;;7.72
7830;BMP180;3960;51.86894000;5.39848000;2023-02-01T12:19:46;101888.13;;;7.88
7830;BMP180;3960;51.86894000;5.39848000;2023-02-01T12:22:45;101897.84;;;7.93
7830;BMP180;3960;51.86894000;5.39848000;2023-02-01T12:41:06;101900.56;;;8.41
7830;BMP180;3960;51.86894000;5.39848000;2023-02-01T12:46:12;101880.72;;;8.56
7830;BMP180;3960;51.86894000;5.39848000;2023-02-01T12:51:18;101885.16;;;8.70
7830;BMP180;3960;51.86894000;5.39848000;2023-02-01T12:53:56;101899.16;;;8.79
7830;BMP180;3960;51.86894000;5.39848000;2023-02-01T12:56:26;101894.56;;;8.80
7830;BMP180;3960;51.86894000;5.39848000;2023-02-01T12:58:58;101893.41;;;8.81
7830;BMP180;3960;51.86894000;5.39848000;2023-02-01T13:01:35;101886.09;;;8.81
7830;BMP180;3960;51.86894000;5.39848000;2023-02-01T13:04:16;101881.88;;;8.84
7830;BMP180;3960;51.86894000;5.39848000;2023-02-01T13:06:47;101871.63;;;8.96
7830;BMP180;3960;51.86894000;5.39848000;2023-02-01T13:11:45;101880.81;;;9.25
7830;BMP180;3960;51.86894000;5.39848000;2023-02-01T13:16:49;101865.09;;;9.37
7830;BMP180;3960;51.86894000;5.39848000;2023-02-01T13:19:20;101834.63;;;9.40
7830;BMP180;3960;51.86894000;5.39848000;2023-02-01T13:21:55;101879.97;;;9.57
7830;BMP180;3960;51.86894000;5.39848000;2023-02-01T13:24:32;101862.09;;;9.42
7830;BMP180;3960;51.86894000;5.39848000;2023-02-01T13:26:59;101845.28;;;9.26
7830;BMP180;3960;51.86894000;5.39848000;2023-02-01T13:29:27;101865.75;;;9.24
7830;BMP180;3960;51.86894000;5.39848000;2023-02-01T13:35:23;101879.94;;;9.17
7830;BMP180;3960;51.86894000;5.39848000;2023-02-01T13:38:09;101881.75;;;9.06
7830;BMP180;3960;51.86894000;5.39848000;2023-02-01T13:41:16;101885.66;;;9.09
7830;BMP180;3960;51.86894000;5.39848000;2023-02-01T13:43:50;101878.22;;;8.99
7830;BMP180;3960;51.86894000;5.39848000;2023-02-01T13:46:17;101875.47;;;8.95
7830;BMP180;3960;51.86894000;5.39848000;2023-02-01T13:48:50;101890.16;;;8.98
7830;BMP180;3960;51.86894000;5.39848000;2023-02-01T13:53:59;101893.34;;;8.77
7830;BMP180;3960;51.86894000;5.39848000;2023-02-01T13:56:25;101876.00;;;8.78
7830;BMP180;3960;51.86894000;5.39848000;2023-02-01T13:58:51;101891.50;;;8.81
7830;BMP180;3960;51.86894000;5.39848000;2023-02-01T14:06:18;101896.38;;;8.72
7830;BMP180;3960;51.86894000;5.39848000;2023-02-01T14:11:42;101906.75;;;8.70
7830;BMP180;3960;51.86894000;5.39848000;2023-02-01T14:16:39;101902.44;;;8.63
7830;BMP180;3960;51.86894000;5.39848000;2023-02-01T14:19:09;101907.41;;;8.61
7830;BMP180;3960;51.86894000;5.39848000;2023-02-01T14:21:49;101907.09;;;8.66
7830;BMP180;3960;51.86894000;5.39848000;2023-02-01T14:24:24;101910.16;;;8.64
7830;BMP180;3960;51.86894000;5.39848000;2023-02-01T14:26:51;101897.31;;;8.58
7830;BMP180;3960;51.86894000;5.39848000;2023-02-01T14:29:37;101910.22;;;8.68
7830;BMP180;3960;51.86894000;5.39848000;2023-02-01T14:37:22;101899.88;;;8.73
7830;BMP180;3960;51.86894000;5.39848000;2023-02-01T14:40:52;101908.69;;;8.70
7830;BMP180;3960;51.86894000;5.39848000;2023-02-01T14:42:49;101897.38;;;8.61
7830;BMP180;3960;51.86894000;5.39848000;2023-02-01T14:50:34;101914.03;;;8.67
7830;BMP180;3960;51.86894000;5.39848000;2023-02-01T14:58:50;101909.72;;;8.62
7830;BMP180;3960;51.86894000;5.39848000;2023-02-01T15:04:13;101914.31;;;8.58
7830;BMP180;3960;51.86894000;5.39848000;2023-02-01T15:06:54;101920.84;;;8.57